Time;durP1;ratioP1;P1;durP2;ratioP2;P2;SDS_P1;SDS_P2;PMS_P1;PMS_P2;Temp;Humidity;BMP_temperature;BMP_pressure;BME280_temperature;BME280_humidity;BME280_pressure;Samples;Min_cycle;Max_cycle;Signal;HPM_P1;HPM_P2
2022/03/21 00:02:06;;;;;;;37.97;27.48;;;;;;;;;;6247764;23;20055;-87
2022/03/21 00:04:32;;;;;;;39.25;27.15;;;;;;;;;;6250517;23;20016;-87
2022/03/21 00:06:58;;;;;;;31.92;25.35;;;;;;;;;;6247863;23;20421;-86
2022/03/21 00:09:24;;;;;;;37.15;24.73;;;;;;;;;;6268443;22;20067;-87
2022/03/21 00:11:50;;;;;;;33.30;26.05;;;;;;;;;;6264806;22;20031;-88
2022/03/21 00:14:16;;;;;;;37.88;25.85;;;;;;;;;;6245402;23;20030;-86
2022/03/21 00:16:43;;;;;;;37.08;26.20;;;;;;;;;;6245807;23;20066;-86
2022/03/21 00:19:09;;;;;;;35.60;26.25;;;;;;;;;;6245192;23;20073;-86
2022/03/21 00:21:35;;;;;;;35.67;27.77;;;;;;;;;;6244518;23;20084;-87
2022/03/21 00:24:02;;;;;;;36.58;27.15;;;;;;;;;;6253378;22;20039;-86
2022/03/21 00:26:28;;;;;;;40.55;26.48;;;;;;;;;;6281990;22;20074;-89
2022/03/21 00:28:54;;;;;;;32.60;24.27;;;;;;;;;;6287478;22;20024;-86
2022/03/21 00:31:20;;;;;;;36.35;25.23;;;;;;;;;;6277887;22;20022;-87
2022/03/21 00:33:46;;;;;;;35.60;26.23;;;;;;;;;;6236262;23;20019;-87
2022/03/21 00:36:12;;;;;;;35.75;24.92;;;;;;;;;;6211429;23;20012;-90
2022/03/21 00:38:38;;;;;;;38.13;25.77;;;;;;;;;;6236495;23;20020;-87
2022/03/21 00:41:05;;;;;;;35.50;24.27;;;;;;;;;;6234639;23;20031;-87
2022/03/21 00:43:31;;;;;;;36.22;25.10;;;;;;;;;;6234245;23;20016;-86
2022/03/21 00:45:58;;;;;;;39.88;25.83;;;;;;;;;;6259518;22;20099;-87
2022/03/21 00:48:25;;;;;;;38.17;25.05;;;;;;;;;;6260475;22;20110;-87
2022/03/21 00:50:52;;;;;;;37.03;24.40;;;;;;;;;;6233284;23;20348;-90
2022/03/21 00:53:18;;;;;;;35.00;23.80;;;;;;;;;;6209760;23;20479;-86
2022/03/21 00:55:46;;;;;;;35.67;24.92;;;;;;;;;;6259017;22;20031;-87
2022/03/21 00:58:12;;;;;;;39.60;24.35;;;;;;;;;;6234299;23;20017;-86
2022/03/21 01:00:38;;;;;;;33.88;23.90;;;;;;;;;;6259207;22;20099;-88
2022/03/21 01:03:04;;;;;;;36.33;23.88;;;;;;;;;;6261516;22;20020;-90
2022/03/21 01:05:31;;;;;;;34.00;24.10;;;;;;;;;;6259214;22;20543;-86
2022/03/21 01:07:58;;;;;;;35.30;23.67;;;;;;;;;;6260228;22;20024;-88
2022/03/21 01:10:25;;;;;;;35.55;23.38;;;;;;;;;;6234914;23;20028;-87
2022/03/21 01:12:57;;;;;;;36.00;24.25;;;;;;;;;;6234760;23;20342;-87
2022/03/21 01:15:25;;;;;;;35.20;24.60;;;;;;;;;;6235837;23;20468;-85
2022/03/21 01:17:52;;;;;;;36.30;23.77;;;;;;;;;;6259219;22;20074;-87
2022/03/21 01:20:19;;;;;;;33.40;23.48;;;;;;;;;;6259372;22;20887;-88
2022/03/21 01:22:45;;;;;;;30.45;23.20;;;;;;;;;;6183919;23;20016;-86
2022/03/21 01:25:11;;;;;;;34.97;23.83;;;;;;;;;;6235185;23;20814;-86
2022/03/21 01:27:38;;;;;;;36.05;24.42;;;;;;;;;;6239359;23;20028;-86
2022/03/21 01:30:04;;;;;;;38.22;25.30;;;;;;;;;;6239130;23;20035;-85
2022/03/21 01:32:32;;;;;;;39.88;25.70;;;;;;;;;;6239191;23;20472;-87
2022/03/21 01:34:58;;;;;;;40.80;24.98;;;;;;;;;;6237059;23;20387;-86
2022/03/21 01:37:24;;;;;;;38.80;25.27;;;;;;;;;;6211322;23;20075;-86
2022/03/21 01:39:50;;;;;;;40.17;24.40;;;;;;;;;;6236517;23;20012;-91
2022/03/21 01:42:19;;;;;;;36.28;23.92;;;;;;;;;;6237940;23;20024;-89
2022/03/21 01:44:45;;;;;;;37.92;26.20;;;;;;;;;;6271040;22;20059;-86
2022/03/21 01:47:11;;;;;;;36.97;24.75;;;;;;;;;;6248075;23;20016;-86
2022/03/21 01:49:38;;;;;;;37.25;25.58;;;;;;;;;;6237178;23;20020;-86
2022/03/21 01:52:04;;;;;;;35.97;25.77;;;;;;;;;;6236213;23;20013;-87
2022/03/21 01:57:15;;;;;;;35.33;23.65;;;;;;;;;;6247689;22;20020;-88
2022/03/21 01:59:41;;;;;;;33.33;24.42;;;;;;;;;;6252855;23;20027;-87
2022/03/21 02:02:07;;;;;;;36.20;23.73;;;;;;;;;;6250210;23;20056;-87
2022/03/21 02:04:34;;;;;;;35.97;25.77;;;;;;;;;;6260883;23;20023;-88
2022/03/21 02:07:01;;;;;;;36.40;24.65;;;;;;;;;;6260161;23;20024;-89
2022/03/21 02:09:28;;;;;;;43.35;24.92;;;;;;;;;;6204403;23;20376;-87
2022/03/21 02:12:01;;;;;;;37.67;25.30;;;;;;;;;;6245854;23;20395;-87
2022/03/21 02:14:27;;;;;;;36.05;25.35;;;;;;;;;;6241445;23;20016;-86
2022/03/21 02:16:53;;;;;;;40.17;24.60;;;;;;;;;;6249469;23;20103;-88
2022/03/21 02:19:19;;;;;;;40.45;26.75;;;;;;;;;;6254690;23;20031;-86
2022/03/21 02:21:45;;;;;;;37.42;26.35;;;;;;;;;;6252076;23;20059;-87
2022/03/21 02:24:18;;;;;;;38.13;26.67;;;;;;;;;;6255132;23;20012;-86
2022/03/21 02:26:45;;;;;;;41.50;26.38;;;;;;;;;;6240641;23;20019;-86
2022/03/21 02:29:13;;;;;;;37.13;25.92;;;;;;;;;;6260445;22;20020;-87
2022/03/21 02:31:39;;;;;;;40.47;27.20;;;;;;;;;;6236111;23;20016;-86
2022/03/21 02:34:05;;;;;;;38.60;28.27;;;;;;;;;;6236745;23;20428;-87
2022/03/21 02:36:31;;;;;;;40.13;28.42;;;;;;;;;;6259659;22;20019;-89
2022/03/21 02:38:58;;;;;;;44.72;28.98;;;;;;;;;;6232529;23;20024;-87
2022/03/21 02:41:24;;;;;;;43.45;28.55;;;;;;;;;;6234323;23;20020;-90
2022/03/21 02:43:50;;;;;;;41.35;29.50;;;;;;;;;;6234847;23;20091;-90
2022/03/21 02:46:17;;;;;;;45.35;30.42;;;;;;;;;;6234274;23;20424;-89
2022/03/21 02:48:45;;;;;;;45.20;31.85;;;;;;;;;;6234232;23;20465;-88
2022/03/21 02:51:11;;;;;;;44.50;31.00;;;;;;;;;;6236088;23;20019;-85
2022/03/21 02:53:38;;;;;;;42.05;30.33;;;;;;;;;;6234470;23;20096;-88
2022/03/21 02:56:04;;;;;;;49.08;30.15;;;;;;;;;;6234502;23;20035;-88
2022/03/21 02:58:30;;;;;;;44.60;31.02;;;;;;;;;;6232360;23;20103;-87
2022/03/21 03:01:09;;;;;;;39.05;28.55;;;;;;;;;;6233790;23;20016;-89
2022/03/21 03:03:36;;;;;;;41.95;26.98;;;;;;;;;;6235379;23;20020;-88
2022/03/21 03:06:02;;;;;;;41.25;27.52;;;;;;;;;;6234950;23;20056;-88
2022/03/21 03:08:29;;;;;;;41.17;27.88;;;;;;;;;;6234722;23;20027;-88
2022/03/21 03:10:55;;;;;;;40.25;28.02;;;;;;;;;;6258204;22;20012;-86
2022/03/21 03:13:21;;;;;;;43.85;28.08;;;;;;;;;;6258928;22;20020;-89
2022/03/21 03:15:50;;;;;;;40.10;27.77;;;;;;;;;;6257276;22;20074;-86
2022/03/21 03:18:16;;;;;;;45.75;27.40;;;;;;;;;;6233752;23;20016;-87
2022/03/21 03:20:55;;;;;;;40.53;27.50;;;;;;;;;;6257716;22;20020;-86
2022/03/21 03:23:23;;;;;;;41.10;27.25;;;;;;;;;;6257981;22;20031;-87
2022/03/21 03:25:51;;;;;;;41.28;28.48;;;;;;;;;;6234778;23;20024;-86
2022/03/21 03:28:17;;;;;;;43.53;27.17;;;;;;;;;;6232233;23;20016;-87
2022/03/21 03:30:43;;;;;;;40.58;27.15;;;;;;;;;;6257738;22;20230;-89
2022/03/21 03:33:09;;;;;;;35.30;25.45;;;;;;;;;;6233058;23;20020;-88
2022/03/21 03:35:36;;;;;;;43.63;27.25;;;;;;;;;;6258214;22;20099;-88
2022/03/21 03:38:03;;;;;;;37.35;26.88;;;;;;;;;;6233113;23;20033;-88
2022/03/21 03:40:29;;;;;;;36.15;25.92;;;;;;;;;;6234297;23;20035;-86
2022/03/21 03:42:55;;;;;;;38.70;26.65;;;;;;;;;;6237837;22;20469;-86
2022/03/21 03:45:21;;;;;;;37.20;24.85;;;;;;;;;;6208090;23;20114;-86
2022/03/21 03:47:47;;;;;;;40.15;26.17;;;;;;;;;;6210881;23;20020;-87
2022/03/21 03:50:14;;;;;;;39.35;25.75;;;;;;;;;;6260602;22;20546;-86
2022/03/21 03:52:45;;;;;;;39.72;26.23;;;;;;;;;;6231946;22;20452;-86
2022/03/21 03:55:17;;;;;;;39.03;25.23;;;;;;;;;;6232603;23;20012;-86
2022/03/21 03:57:43;;;;;;;38.28;25.60;;;;;;;;;;6233049;23;20476;-86
2022/03/21 04:00:09;;;;;;;38.70;24.83;;;;;;;;;;6232661;23;20104;-85
2022/03/21 04:03:44;;;;;;;38.75;24.85;;;;;;;;;;6258844;22;20356;-86
2022/03/21 04:05:22;;;;;;;36.53;24.92;;;;;;;;;;6248074;23;20063;-86
2022/03/21 04:07:49;;;;;;;39.83;25.27;;;;;;;;;;6256411;23;20020;-86
2022/03/21 04:10:15;;;;;;;41.53;25.85;;;;;;;;;;6257983;23;20074;-87
2022/03/21 04:12:47;;;;;;;44.67;27.08;;;;;;;;;;6251863;23;20024;-85
2022/03/21 04:15:13;;;;;;;47.78;27.45;;;;;;;;;;6232846;23;20585;-86
2022/03/21 04:17:39;;;;;;;42.10;26.25;;;;;;;;;;6232978;23;20027;-86
2022/03/21 04:20:07;;;;;;;42.42;27.05;;;;;;;;;;6208515;23;20098;-86
2022/03/21 04:22:36;;;;;;;44.63;28.90;;;;;;;;;;6233277;23;20031;-85
2022/03/21 04:25:06;;;;;;;47.25;27.60;;;;;;;;;;6233823;23;20016;-85
2022/03/21 04:27:32;;;;;;;45.42;28.77;;;;;;;;;;6257916;22;20024;-86
2022/03/21 04:29:59;;;;;;;48.85;28.20;;;;;;;;;;6231316;23;20020;-86
2022/03/21 04:32:25;;;;;;;41.85;27.80;;;;;;;;;;6258425;22;20020;-86
2022/03/21 04:34:51;;;;;;;47.50;28.42;;;;;;;;;;6257606;22;20016;-87
2022/03/21 04:37:17;;;;;;;42.85;28.35;;;;;;;;;;6258179;22;20051;-87
2022/03/21 04:39:43;;;;;;;44.65;28.52;;;;;;;;;;6232784;22;20020;-86
2022/03/21 04:42:09;;;;;;;46.08;29.17;;;;;;;;;;6232998;23;20020;-85
2022/03/21 04:44:35;;;;;;;45.88;29.83;;;;;;;;;;6256978;22;20024;-85
2022/03/21 04:47:01;;;;;;;45.92;29.67;;;;;;;;;;6257206;22;20017;-86
2022/03/21 04:49:27;;;;;;;39.88;26.80;;;;;;;;;;6233249;23;20016;-86
2022/03/21 04:51:53;;;;;;;45.13;27.42;;;;;;;;;;6232574;23;20028;-87
2022/03/21 04:54:23;;;;;;;41.00;27.17;;;;;;;;;;6235618;23;20020;-89
2022/03/21 04:56:50;;;;;;;37.05;26.95;;;;;;;;;;6233348;23;20020;-86
2022/03/21 04:59:16;;;;;;;35.55;24.90;;;;;;;;;;6236547;23;20015;-87
2022/03/21 05:01:42;;;;;;;42.33;27.05;;;;;;;;;;6233867;23;20563;-86
2022/03/21 05:04:11;;;;;;;43.85;27.23;;;;;;;;;;6237132;23;20070;-86
2022/03/21 05:06:37;;;;;;;43.88;28.05;;;;;;;;;;6233373;23;20022;-85
2022/03/21 05:09:03;;;;;;;46.90;28.38;;;;;;;;;;6259430;22;20063;-86
2022/03/21 05:11:30;;;;;;;44.10;30.00;;;;;;;;;;6233359;23;20095;-85
2022/03/21 05:13:56;;;;;;;40.58;27.48;;;;;;;;;;6259374;22;20027;-85
2022/03/21 05:16:22;;;;;;;48.30;29.48;;;;;;;;;;6234343;23;20526;-85
2022/03/21 05:18:49;;;;;;;42.85;28.25;;;;;;;;;;6232402;23;20019;-86
2022/03/21 05:21:16;;;;;;;40.92;25.17;;;;;;;;;;6235287;23;20023;-86
2022/03/21 05:31:56;;;;;;;45.03;27.63;;;;;;;;;;6234355;23;20532;-88
2022/03/21 05:37:07;;;;;;;46.72;28.60;;;;;;;;;;6234086;23;20489;-86
2022/03/21 05:39:33;;;;;;;46.97;29.25;;;;;;;;;;6234349;23;20859;-86
2022/03/21 05:41:59;;;;;;;51.15;30.35;;;;;;;;;;6234681;23;20027;-86
2022/03/21 05:44:25;;;;;;;47.08;29.92;;;;;;;;;;6258438;22;20095;-85
2022/03/21 05:46:51;;;;;;;49.55;32.38;;;;;;;;;;6233967;23;20016;-86
2022/03/21 05:49:18;;;;;;;53.53;33.05;;;;;;;;;;6235070;23;20034;-87
2022/03/21 05:51:44;;;;;;;62.53;35.35;;;;;;;;;;6232042;23;20024;-88
2022/03/21 05:54:11;;;;;;;59.28;34.47;;;;;;;;;;6257795;22;20099;-86
2022/03/21 05:56:38;;;;;;;58.35;36.13;;;;;;;;;;6231654;23;20757;-85
2022/03/21 06:01:49;;;;;;;61.30;36.42;;;;;;;;;;6236166;23;20086;-87
2022/03/21 06:04:16;;;;;;;59.92;34.35;;;;;;;;;;6236979;23;20348;-86
2022/03/21 06:06:45;;;;;;;57.40;34.72;;;;;;;;;;6239070;23;20820;-85
2022/03/21 06:09:11;;;;;;;61.40;35.38;;;;;;;;;;6260924;22;20388;-85
2022/03/21 06:11:37;;;;;;;60.65;35.08;;;;;;;;;;6235227;23;20515;-86
2022/03/21 06:14:08;;;;;;;55.58;35.08;;;;;;;;;;6236680;23;20027;-86
2022/03/21 06:16:35;;;;;;;52.80;31.73;;;;;;;;;;6235798;23;20024;-87
2022/03/21 06:19:01;;;;;;;55.47;33.20;;;;;;;;;;6234703;23;20393;-86
2022/03/21 06:21:29;;;;;;;62.58;33.85;;;;;;;;;;6235192;23;20024;-86
2022/03/21 06:24:13;;;;;;;52.70;31.88;;;;;;;;;;6235986;23;20563;-87
2022/03/21 06:26:39;;;;;;;;;;;;;;;;;;6235732;23;20924;-85
2022/03/21 06:29:11;;;;;;;54.05;32.90;;;;;;;;;;6237969;23;19915;-86
2022/03/21 06:31:38;;;;;;;55.15;30.77;;;;;;;;;;6235554;23;20095;-86
2022/03/21 06:34:04;;;;;;;54.33;32.38;;;;;;;;;;6236078;23;20475;-86
2022/03/21 06:36:30;;;;;;;49.35;29.80;;;;;;;;;;6233991;23;20019;-86
2022/03/21 06:38:56;;;;;;;46.65;28.83;;;;;;;;;;6236091;23;20102;-86
2022/03/21 06:41:22;;;;;;;47.53;28.80;;;;;;;;;;6237227;23;20059;-86
2022/03/21 06:43:49;;;;;;;43.63;27.70;;;;;;;;;;6236334;23;20020;-85
2022/03/21 06:46:15;;;;;;;48.88;29.38;;;;;;;;;;6236215;23;20024;-88
2022/03/21 06:48:41;;;;;;;48.33;29.48;;;;;;;;;;6208704;23;20091;-88
2022/03/21 06:51:07;;;;;;;45.85;27.50;;;;;;;;;;6184077;23;20048;-88
2022/03/21 06:53:33;;;;;;;43.05;27.23;;;;;;;;;;6235111;23;20016;-86
2022/03/21 06:55:59;;;;;;;42.92;26.67;;;;;;;;;;6235653;23;20016;-85
2022/03/21 06:58:26;;;;;;;42.65;26.23;;;;;;;;;;6234737;23;20020;-88
2022/03/21 07:00:52;;;;;;;46.13;25.70;;;;;;;;;;6235560;23;20034;-86
2022/03/21 07:03:19;;;;;;;39.80;25.38;;;;;;;;;;6235015;23;20380;-88
2022/03/21 07:05:45;;;;;;;40.60;26.58;;;;;;;;;;6234060;23;20448;-86
2022/03/21 07:08:11;;;;;;;41.42;25.60;;;;;;;;;;6259495;22;20044;-87
2022/03/21 07:10:40;;;;;;;45.83;27.90;;;;;;;;;;6235758;23;20031;-86
2022/03/21 07:13:07;;;;;;;40.60;26.17;;;;;;;;;;6259599;22;20145;-89
2022/03/21 07:15:33;;;;;;;40.15;26.17;;;;;;;;;;6241015;23;20363;-86
2022/03/21 07:18:00;;;;;;;44.45;27.55;;;;;;;;;;6260783;22;20377;-86
2022/03/21 07:20:26;;;;;;;42.72;28.70;;;;;;;;;;6236598;23;20107;-88
2022/03/21 07:23:10;;;;;;;41.47;28.25;;;;;;;;;;6233713;23;20412;-89
2022/03/21 07:25:36;;;;;;;44.17;29.08;;;;;;;;;;6208903;23;20055;-88
2022/03/21 07:28:02;;;;;;;42.00;28.55;;;;;;;;;;6259875;22;20078;-91
2022/03/21 07:30:28;;;;;;;48.17;30.00;;;;;;;;;;6236185;23;20381;-89
2022/03/21 07:32:55;;;;;;;47.97;32.00;;;;;;;;;;6234048;23;20047;-87
2022/03/21 07:35:21;;;;;;;45.80;30.45;;;;;;;;;;6233973;23;20015;-88
2022/03/21 07:37:50;;;;;;;50.72;32.20;;;;;;;;;;6258523;22;20020;-89
2022/03/21 07:40:17;;;;;;;48.67;31.08;;;;;;;;;;6235597;23;20472;-90
2022/03/21 07:42:44;;;;;;;46.00;29.17;;;;;;;;;;6264321;22;20022;-88
2022/03/21 07:47:56;;;;;;;46.47;28.80;;;;;;;;;;6258583;22;20043;-86
2022/03/21 07:50:25;;;;;;;41.47;28.48;;;;;;;;;;6286317;22;20027;-87
2022/03/21 07:52:52;;;;;;;41.45;27.35;;;;;;;;;;6239536;23;20091;-89
2022/03/21 07:55:18;;;;;;;47.78;27.45;;;;;;;;;;6238072;23;20096;-89
2022/03/21 07:57:44;;;;;;;40.05;28.67;;;;;;;;;;6260462;22;20020;-90
2022/03/21 08:00:11;;;;;;;43.95;28.95;;;;;;;;;;6261193;22;20118;-84
2022/03/21 08:02:37;;;;;;;42.45;26.52;;;;;;;;;;6252689;23;20028;-86
2022/03/21 08:05:07;;;;;;;44.38;28.65;;;;;;;;;;6261243;22;20024;-84
2022/03/21 08:07:34;;;;;;;40.92;27.35;;;;;;;;;;6260752;22;20051;-85
2022/03/21 08:10:01;;;;;;;41.08;25.42;;;;;;;;;;6234878;23;20047;-86
2022/03/21 08:12:27;;;;;;;36.83;25.40;;;;;;;;;;6268520;22;20107;-84
2022/03/21 08:14:53;;;;;;;36.03;23.77;;;;;;;;;;6184533;23;20027;-87
2022/03/21 08:17:19;;;;;;;35.95;24.98;;;;;;;;;;6235197;23;20026;-87
2022/03/21 08:19:45;;;;;;;35.33;23.85;;;;;;;;;;6236421;23;20020;-85
2022/03/21 08:22:12;;;;;;;39.08;24.88;;;;;;;;;;6260653;22;20062;-85
2022/03/21 08:24:38;;;;;;;36.15;23.88;;;;;;;;;;6236702;23;20012;-85
2022/03/21 08:27:07;;;;;;;34.92;23.70;;;;;;;;;;6238981;23;20051;-86
2022/03/21 08:29:37;;;;;;;32.50;23.23;;;;;;;;;;6262549;22;20103;-85
2022/03/21 08:32:03;;;;;;;33.53;24.13;;;;;;;;;;6261085;22;20059;-85
2022/03/21 08:34:29;;;;;;;34.95;23.95;;;;;;;;;;6238501;23;20043;-85
2022/03/21 08:36:55;;;;;;;35.83;24.00;;;;;;;;;;6238931;23;20798;-84
2022/03/21 08:39:22;;;;;;;34.70;24.33;;;;;;;;;;6262575;22;20020;-85
2022/03/21 08:41:48;;;;;;;37.55;23.95;;;;;;;;;;6235727;23;20448;-84
2022/03/21 08:44:14;;;;;;;39.95;24.30;;;;;;;;;;6238685;23;20046;-85
2022/03/21 08:46:40;;;;;;;40.47;24.98;;;;;;;;;;6239498;23;20071;-84
2022/03/21 08:49:24;;;;;;;34.70;23.92;;;;;;;;;;6275938;22;20115;-85
2022/03/21 08:51:51;;;;;;;36.10;23.85;;;;;;;;;;6193375;23;20062;-85
2022/03/21 08:54:17;;;;;;;33.17;23.52;;;;;;;;;;6236630;23;20457;-87
2022/03/21 08:56:52;;;;;;;30.73;23.35;;;;;;;;;;6234258;23;20016;-84
2022/03/21 08:59:18;;;;;;;38.35;23.20;;;;;;;;;;6235188;23;20020;-86
2022/03/21 09:01:45;;;;;;;35.80;23.58;;;;;;;;;;6237786;23;20031;-86
2022/03/21 09:04:12;;;;;;;35.20;23.55;;;;;;;;;;6237400;23;20051;-86
2022/03/21 09:06:38;;;;;;;34.85;24.00;;;;;;;;;;6250681;22;20464;-86
2022/03/21 09:09:05;;;;;;;31.42;24.48;;;;;;;;;;6274270;22;20031;-86
2022/03/21 09:11:33;;;;;;;36.22;22.00;;;;;;;;;;6245116;23;20428;-85
2022/03/21 09:14:09;;;;;;;35.30;22.85;;;;;;;;;;6263750;22;20016;-86
2022/03/21 09:16:52;;;;;;;35.05;22.25;;;;;;;;;;6185856;23;20090;-85
2022/03/21 09:19:19;;;;;;;33.35;22.27;;;;;;;;;;6209979;23;20028;-86
2022/03/21 09:21:46;;;;;;;36.33;21.88;;;;;;;;;;6235682;23;20494;-85
2022/03/21 09:24:13;;;;;;;34.90;23.20;;;;;;;;;;6261445;22;20012;-86
2022/03/21 09:26:39;;;;;;;34.65;22.08;;;;;;;;;;6259600;22;20395;-86
2022/03/21 09:29:05;;;;;;;32.85;22.02;;;;;;;;;;6261798;22;20087;-86
2022/03/21 09:31:31;;;;;;;32.15;22.77;;;;;;;;;;6237455;23;20016;-85
2022/03/21 09:33:59;;;;;;;33.53;21.58;;;;;;;;;;6263403;22;20075;-85
2022/03/21 09:36:25;;;;;;;30.92;21.98;;;;;;;;;;6245946;23;20028;-87
2022/03/21 09:38:52;;;;;;;43.08;23.10;;;;;;;;;;6261645;22;20450;-84
2022/03/21 09:41:22;;;;;;;33.85;23.52;;;;;;;;;;6261094;22;20352;-86
2022/03/21 09:43:52;;;;;;;33.75;23.35;;;;;;;;;;6233743;23;20082;-85
2022/03/21 09:46:18;;;;;;;32.42;22.05;;;;;;;;;;6260172;22;20020;-86
2022/03/21 09:48:47;;;;;;;32.17;21.58;;;;;;;;;;6236974;23;20099;-86
2022/03/21 09:51:13;;;;;;;32.92;22.65;;;;;;;;;;6237831;23;20035;-87
2022/03/21 09:53:40;;;;;;;32.40;21.35;;;;;;;;;;6235485;23;20387;-86
2022/03/21 09:56:08;;;;;;;35.95;21.95;;;;;;;;;;6261326;22;20028;-87
2022/03/21 09:58:34;;;;;;;34.90;21.67;;;;;;;;;;6233909;23;20019;-87
2022/03/21 10:01:01;;;;;;;29.42;19.88;;;;;;;;;;6233110;23;20026;-85
2022/03/21 10:03:28;;;;;;;33.03;21.23;;;;;;;;;;6235284;23;20518;-87
2022/03/21 10:05:54;;;;;;;30.50;21.55;;;;;;;;;;6260451;22;20019;-87
2022/03/21 10:08:21;;;;;;;31.00;21.15;;;;;;;;;;6236948;23;20028;-86
2022/03/21 10:10:56;;;;;;;31.20;21.13;;;;;;;;;;6243353;23;20487;-88
2022/03/21 10:13:23;;;;;;;31.65;22.77;;;;;;;;;;6264817;22;20506;-87
2022/03/21 10:15:49;;;;;;;32.13;21.38;;;;;;;;;;6234594;23;20087;-86
2022/03/21 10:18:18;;;;;;;28.70;21.50;;;;;;;;;;6235658;23;20022;-87
2022/03/21 10:20:45;;;;;;;33.55;21.38;;;;;;;;;;6236518;23;20024;-87
2022/03/21 10:23:19;;;;;;;34.00;21.67;;;;;;;;;;6240093;23;20016;-85
2022/03/21 10:25:49;;;;;;;32.17;22.05;;;;;;;;;;6233846;23;20020;-87
2022/03/21 10:28:43;;;;;;;29.67;21.48;;;;;;;;;;6259759;22;20024;-87
2022/03/21 10:31:09;;;;;;;35.70;23.13;;;;;;;;;;6260302;22;20361;-87
2022/03/21 10:33:35;;;;;;;33.50;21.67;;;;;;;;;;6236440;23;20027;-87
2022/03/21 10:36:17;;;;;;;30.67;22.15;;;;;;;;;;6235648;23;20027;-87
2022/03/21 10:39:10;;;;;;;29.77;21.83;;;;;;;;;;6204642;23;20752;-88
2022/03/21 10:41:37;;;;;;;29.10;21.55;;;;;;;;;;6206074;23;20031;-87
2022/03/21 10:44:04;;;;;;;33.08;22.08;;;;;;;;;;6202323;23;20024;-85
2022/03/21 10:46:30;;;;;;;33.60;23.08;;;;;;;;;;6230461;23;20496;-87
2022/03/21 10:49:04;;;;;;;40.75;22.83;;;;;;;;;;6205223;23;20020;-86
2022/03/21 10:51:30;;;;;;;;;;;;;;;;;;6208216;23;20056;-86
2022/03/21 10:53:58;;;;;;;31.35;21.20;;;;;;;;;;6202868;23;19947;-85
2022/03/21 10:56:24;;;;;;;30.33;21.10;;;;;;;;;;6231285;23;20019;-86
2022/03/21 10:58:50;;;;;;;32.17;22.48;;;;;;;;;;6205945;23;20116;-85
2022/03/21 11:01:17;;;;;;;31.10;22.50;;;;;;;;;;6229206;23;20048;-84
2022/03/21 11:03:44;;;;;;;33.40;22.40;;;;;;;;;;6231913;23;20021;-85
2022/03/21 11:06:11;;;;;;;30.23;21.35;;;;;;;;;;6205603;23;20021;-87
2022/03/21 11:08:38;;;;;;;31.95;21.88;;;;;;;;;;6206552;23;20020;-85
2022/03/21 11:11:04;;;;;;;29.73;22.42;;;;;;;;;;6208051;23;20783;-87
2022/03/21 11:13:31;;;;;;;32.08;22.63;;;;;;;;;;6208808;23;20332;-86
2022/03/21 11:15:58;;;;;;;29.00;21.30;;;;;;;;;;6230757;23;20092;-85
2022/03/21 11:18:25;;;;;;;31.98;21.67;;;;;;;;;;6206747;23;20016;-85
2022/03/21 11:20:52;;;;;;;28.73;21.63;;;;;;;;;;6209176;23;20021;-86
2022/03/21 11:23:19;;;;;;;30.13;22.05;;;;;;;;;;6230339;23;20035;-92
2022/03/21 11:25:52;;;;;;;30.25;21.75;;;;;;;;;;6229129;22;20028;-91
2022/03/21 11:28:18;;;;;;;27.08;21.05;;;;;;;;;;6232477;22;20021;-91
2022/03/21 11:31:00;;;;;;;31.27;22.73;;;;;;;;;;6235555;23;20296;-87
2022/03/21 11:33:30;;;;;;;28.85;22.48;;;;;;;;;;6249646;23;20032;-87
2022/03/21 11:36:01;;;;;;;35.42;24.00;;;;;;;;;;6207879;23;20581;-85
2022/03/21 11:38:28;;;;;;;32.58;23.95;;;;;;;;;;6208614;23;20115;-84
2022/03/21 11:41:10;;;;;;;32.13;23.30;;;;;;;;;;6229953;23;20066;-86
2022/03/21 11:43:41;;;;;;;30.48;22.65;;;;;;;;;;6205980;23;20024;-85
2022/03/21 11:46:20;;;;;;;30.38;22.63;;;;;;;;;;6228869;23;20531;-85
2022/03/21 11:48:47;;;;;;;31.20;23.45;;;;;;;;;;6204961;23;20451;-86
2022/03/21 11:51:17;;;;;;;33.40;23.98;;;;;;;;;;6231536;23;20048;-89
2022/03/21 11:53:48;;;;;;;33.22;23.45;;;;;;;;;;6206761;23;20012;-84
2022/03/21 11:56:38;;;;;;;28.30;21.73;;;;;;;;;;6209914;23;20070;-84
2022/03/21 11:59:04;;;;;;;33.53;23.55;;;;;;;;;;6205956;23;20174;-85
2022/03/21 12:01:30;;;;;;;28.83;23.13;;;;;;;;;;6232391;23;20025;-84
2022/03/21 12:04:16;;;;;;;32.63;23.17;;;;;;;;;;6233938;23;20035;-85
2022/03/21 12:06:43;;;;;;;27.10;21.52;;;;;;;;;;6183528;23;20109;-85
2022/03/21 12:09:10;;;;;;;29.05;22.65;;;;;;;;;;6207943;23;20055;-85
2022/03/21 12:11:39;;;;;;;30.73;21.80;;;;;;;;;;6210698;23;20027;-87
2022/03/21 12:14:40;;;;;;;29.88;23.23;;;;;;;;;;6212351;23;20025;-84
2022/03/21 12:17:06;;;;;;;28.45;22.58;;;;;;;;;;6212913;23;20052;-86
2022/03/21 12:19:47;;;;;;;26.75;21.00;;;;;;;;;;6234243;23;20025;-85
2022/03/21 12:22:36;;;;;;;33.88;22.42;;;;;;;;;;6235574;23;20059;-85
2022/03/21 12:25:10;;;;;;;27.73;20.83;;;;;;;;;;6237597;23;20059;-85
2022/03/21 12:27:36;;;;;;;;;;;;;;;;;;6245663;23;20082;-86
2022/03/21 12:30:30;;;;;;;29.58;22.13;;;;;;;;;;6213884;23;19920;-90
2022/03/21 12:32:56;;;;;;;;;;;;;;;;;;6205777;23;20020;-86
2022/03/21 12:35:31;;;;;;;28.20;22.65;;;;;;;;;;6208172;23;19985;-87
2022/03/21 12:38:09;;;;;;;33.95;24.73;;;;;;;;;;6206413;23;20075;-87
2022/03/21 12:40:36;;;;;;;29.15;23.90;;;;;;;;;;6232549;23;20453;-88
2022/03/21 12:43:03;;;;;;;36.28;26.05;;;;;;;;;;6232514;23;20345;-88
2022/03/21 12:45:30;;;;;;;35.17;25.13;;;;;;;;;;6217591;23;20016;-85
2022/03/21 12:48:00;;;;;;;30.48;23.25;;;;;;;;;;6232360;23;20020;-85
2022/03/21 12:50:27;;;;;;;32.78;24.38;;;;;;;;;;6230833;23;20791;-85
2022/03/21 12:52:58;;;;;;;33.22;23.42;;;;;;;;;;6232901;23;20052;-87
2022/03/21 12:55:25;;;;;;;32.58;23.55;;;;;;;;;;6229430;23;20574;-86
2022/03/21 12:57:55;;;;;;;29.27;22.88;;;;;;;;;;6208776;23;20032;-85
2022/03/21 13:00:21;;;;;;;32.55;24.10;;;;;;;;;;6206643;23;20021;-85
2022/03/21 13:02:48;;;;;;;30.33;24.27;;;;;;;;;;6207183;23;20020;-87
2022/03/21 13:10:43;;;;;;;29.83;24.65;;;;;;;;;;6209566;23;20032;-86
2022/03/21 13:13:10;;;;;;;35.83;24.17;;;;;;;;;;6206367;23;20016;-87
2022/03/21 13:15:36;;;;;;;28.60;23.85;;;;;;;;;;6230796;23;20449;-88
2022/03/21 13:18:03;;;;;;;28.70;24.50;;;;;;;;;;6207222;23;20034;-88
2022/03/21 13:20:44;;;;;;;30.73;23.85;;;;;;;;;;6205150;23;20067;-88
2022/03/21 13:23:11;;;;;;;31.10;24.65;;;;;;;;;;6208015;23;20025;-87
2022/03/21 13:25:38;;;;;;;37.38;24.38;;;;;;;;;;6179484;23;20393;-86
2022/03/21 13:28:11;;;;;;;33.00;23.70;;;;;;;;;;6182461;23;20389;-87
2022/03/21 13:30:39;;;;;;;;;;;15.50;99.90;;;;;;6209534;23;20059;-85
2022/03/21 13:33:06;;;;;;;36.22;24.80;;;;;;;;;;6205967;23;19931;-85
2022/03/21 13:35:32;;;;;;;30.48;23.92;;;;;;;;;;6232191;23;20020;-86
2022/03/21 13:38:03;;;;;;;36.10;24.98;;;;;;;;;;6229668;23;20111;-88
2022/03/21 13:40:29;;;;;;;30.77;22.95;;;;;;;;;;6231684;23;20024;-84
2022/03/21 13:42:55;;;;;;;36.38;23.98;;;;;;;;;;6205913;23;20027;-85
2022/03/21 13:45:22;;;;;;;31.88;24.85;;;;;;;;;;6208982;23;20083;-90
2022/03/21 13:47:56;;;;;;;39.83;23.95;;;;;;;;;;6206141;23;20390;-92
2022/03/21 13:50:30;;;;;;;33.92;23.65;;;;;;;;;;6208954;23;20519;-84
2022/03/21 13:52:58;;;;;;;;;;;;;;;;;;6209260;23;20028;-84
2022/03/21 13:55:24;;;;;;;37.08;24.48;;;;;;;;;;6205264;23;19965;-85
2022/03/21 13:57:53;;;;;;;37.80;23.70;;;;;;;;;;6232777;23;20100;-85
2022/03/21 14:00:31;;;;;;;32.25;24.13;;;;;;;;;;6222550;23;20044;-85
2022/03/21 14:03:06;;;;;;;34.15;24.70;;;;;;;;;;6235593;23;20381;-86
2022/03/21 14:05:42;;;;;;;36.58;24.58;;;;;;;;;;6228211;23;20051;-88
2022/03/21 14:08:16;;;;;;;32.03;24.85;;;;;;;;;;6228997;23;20017;-86
2022/03/21 14:10:50;;;;;;;33.80;24.85;;;;;;;;;;6227681;23;20009;-90
2022/03/21 14:13:24;;;;;;;34.05;23.85;;;;;;;;;;6227199;23;20020;-85
2022/03/21 14:15:52;;;;;;;28.13;23.02;;;;;;;;;;6253901;22;20020;-86
2022/03/21 14:18:25;;;;;;;33.25;23.83;;;;;;;;;;6250510;23;20024;-86
2022/03/21 14:20:51;;;;;;;34.15;24.10;;;;;;;;;;6234783;23;20076;-86
2022/03/21 14:23:18;;;;;;;32.75;24.23;;;;;;;;;;6207365;23;20016;-85
2022/03/21 14:28:29;;;;;;;33.53;24.90;;;;;;;;;;6209739;23;20028;-84
2022/03/21 14:30:58;;;;;;;35.47;25.58;;;;;;;;;;6207929;23;20017;-84
2022/03/21 14:33:27;;;;;;;35.88;25.10;;;;;;;;;;6207709;23;20461;-84
2022/03/21 14:35:53;;;;;;;39.47;26.38;;;;;;;;;;6181578;23;20390;-85
2022/03/21 14:38:20;;;;;;;43.35;25.90;;;;;;;;;;6209541;23;20043;-86
2022/03/21 14:40:46;;;;;;;40.90;25.77;;;;;;;;;;6208359;23;20020;-84
2022/03/21 14:43:12;;;;;;;35.50;26.27;;;;;;;;;;6213801;23;20020;-84
2022/03/21 14:45:38;;;;;;;40.35;26.95;;;;;;;;;;6211399;23;20024;-85
2022/03/21 14:48:05;;;;;;;39.92;25.77;;;;;;;;;;6218014;23;20016;-85
2022/03/21 14:50:31;;;;;;;34.78;26.35;;;;;;;;;;6212931;23;20020;-85
2022/03/21 14:52:58;;;;;;;34.10;25.52;;;;;;;;;;6206892;23;20090;-86